sensor_id;sensor_type;location;lat;lon;timestamp;pressure;altitude;pressure_sealevel;temperature;humidity
7774;BME280;3931;42.260;23.116;2023-03-03T00:00:16;95489.28;;;12.03;84.27
7774;BME280;3931;42.260;23.116;2023-03-03T00:02:42;95495.16;;;12.39;80.74
7774;BME280;3931;42.260;23.116;2023-03-03T00:05:09;95495.56;;;12.63;77.40
7774;BME280;3931;42.260;23.116;2023-03-03T00:07:42;95485.72;;;12.02;80.23
7774;BME280;3931;42.260;23.116;2023-03-03T00:10:09;95478.84;;;11.94;83.42
7774;BME280;3931;42.260;23.116;2023-03-03T00:12:45;95472.47;;;12.31;81.74
7774;BME280;3931;42.260;23.116;2023-03-03T00:15:14;95468.88;;;11.59;85.27
7774;BME280;3931;42.260;23.116;2023-03-03T00:17:41;95470.31;;;11.89;86.09
7774;BME280;3931;42.260;23.116;2023-03-03T00:20:28;95466.88;;;11.34;88.77
7774;BME280;3931;42.260;23.116;2023-03-03T00:22:54;95478.63;;;11.63;87.32
7774;BME280;3931;42.260;23.116;2023-03-03T00:25:27;95467.31;;;11.33;89.18
7774;BME280;3931;42.260;23.116;2023-03-03T00:27:53;95468.44;;;11.86;86.99
7774;BME280;3931;42.260;23.116;2023-03-03T00:30:23;95466.22;;;11.55;90.57
7774;BME280;3931;42.260;23.116;2023-03-03T00:32:50;95468.31;;;11.39;87.68
7774;BME280;3931;42.260;23.116;2023-03-03T00:35:24;95463.31;;;11.97;87.09
7774;BME280;3931;42.260;23.116;2023-03-03T00:37:54;95465.19;;;12.12;85.82
7774;BME280;3931;42.260;23.116;2023-03-03T00:40:22;95462.00;;;11.51;88.84
7774;BME280;3931;42.260;23.116;2023-03-03T00:42:51;95460.47;;;11.62;89.67
7774;BME280;3931;42.260;23.116;2023-03-03T00:45:23;95456.88;;;11.49;89.30
7774;BME280;3931;42.260;23.116;2023-03-03T00:47:52;95443.59;;;11.95;85.75
7774;BME280;3931;42.260;23.116;2023-03-03T00:50:30;95459.22;;;11.38;88.02
7774;BME280;3931;42.260;23.116;2023-03-03T00:53:05;95451.03;;;11.35;89.93
7774;BME280;3931;42.260;23.116;2023-03-03T00:55:33;95448.13;;;12.01;87.79
7774;BME280;3931;42.260;23.116;2023-03-03T00:57:59;95458.09;;;12.45;82.36
7774;BME280;3931;42.260;23.116;2023-03-03T01:00:25;95445.25;;;11.92;85.49
7774;BME280;3931;42.260;23.116;2023-03-03T01:02:52;95427.19;;;11.88;86.84
7774;BME280;3931;42.260;23.116;2023-03-03T01:05:19;95430.19;;;11.93;86.82
7774;BME280;3931;42.260;23.116;2023-03-03T01:07:45;95431.28;;;11.83;88.71
7774;BME280;3931;42.260;23.116;2023-03-03T01:10:11;95425.88;;;11.54;88.94
7774;BME280;3931;42.260;23.116;2023-03-03T01:12:37;95423.06;;;11.92;88.70
7774;BME280;3931;42.260;23.116;2023-03-03T01:15:05;95427.19;;;11.88;88.16
7774;BME280;3931;42.260;23.116;2023-03-03T01:17:31;95425.09;;;12.26;85.78
7774;BME280;3931;42.260;23.116;2023-03-03T01:19:58;95422.97;;;11.83;89.64
7774;BME280;3931;42.260;23.116;2023-03-03T01:22:24;95423.75;;;11.58;93.30
7774;BME280;3931;42.260;23.116;2023-03-03T01:24:50;95419.75;;;11.97;89.74
7774;BME280;3931;42.260;23.116;2023-03-03T01:27:16;95420.63;;;11.94;88.47
7774;BME280;3931;42.260;23.116;2023-03-03T01:29:42;95421.16;;;12.02;88.70
7774;BME280;3931;42.260;23.116;2023-03-03T01:32:08;95422.38;;;12.13;88.15
7774;BME280;3931;42.260;23.116;2023-03-03T01:34:34;95428.44;;;12.21;87.26
7774;BME280;3931;42.260;23.116;2023-03-03T01:37:01;95422.63;;;12.28;88.17
7774;BME280;3931;42.260;23.116;2023-03-03T01:39:27;95419.16;;;13.01;85.00
7774;BME280;3931;42.260;23.116;2023-03-03T01:41:53;95414.53;;;13.20;81.94
7774;BME280;3931;42.260;23.116;2023-03-03T01:44:19;95420.09;;;13.60;78.83
7774;BME280;3931;42.260;23.116;2023-03-03T01:46:49;95426.44;;;13.60;79.00
7774;BME280;3931;42.260;23.116;2023-03-03T01:49:20;95428.34;;;13.81;76.35
7774;BME280;3931;42.260;23.116;2023-03-03T01:51:50;95428.00;;;13.31;77.94
7774;BME280;3931;42.260;23.116;2023-03-03T01:54:21;95427.34;;;13.57;78.50
7774;BME280;3931;42.260;23.116;2023-03-03T01:56:50;95422.06;;;13.50;77.84
7774;BME280;3931;42.260;23.116;2023-03-03T01:59:20;95421.16;;;13.53;77.79
7774;BME280;3931;42.260;23.116;2023-03-03T02:01:48;95419.59;;;13.43;78.87
7774;BME280;3931;42.260;23.116;2023-03-03T02:04:15;95417.19;;;13.33;80.70
7774;BME280;3931;42.260;23.116;2023-03-03T02:06:46;95421.00;;;13.48;80.13
7774;BME280;3931;42.260;23.116;2023-03-03T02:09:20;95410.97;;;13.59;78.23
7774;BME280;3931;42.260;23.116;2023-03-03T02:11:50;95413.91;;;13.56;78.82
7774;BME280;3931;42.260;23.116;2023-03-03T02:14:17;95413.28;;;13.52;77.45
7774;BME280;3931;42.260;23.116;2023-03-03T02:16:43;95418.25;;;13.66;76.67
7774;BME280;3931;42.260;23.116;2023-03-03T02:19:16;95415.66;;;13.71;76.81
7774;BME280;3931;42.260;23.116;2023-03-03T02:21:46;95406.66;;;14.16;74.57
7774;BME280;3931;42.260;23.116;2023-03-03T02:24:17;95409.38;;;13.98;74.82
7774;BME280;3931;42.260;23.116;2023-03-03T02:26:48;95404.13;;;13.91;75.86
7774;BME280;3931;42.260;23.116;2023-03-03T02:29:14;95412.72;;;13.75;75.56
7774;BME280;3931;42.260;23.116;2023-03-03T02:31:40;95404.72;;;13.77;75.93
7774;BME280;3931;42.260;23.116;2023-03-03T02:34:07;95408.16;;;13.50;78.83
7774;BME280;3931;42.260;23.116;2023-03-03T02:36:35;95403.25;;;13.54;78.18
7774;BME280;3931;42.260;23.116;2023-03-03T02:39:06;95404.81;;;13.64;78.07
7774;BME280;3931;42.260;23.116;2023-03-03T02:41:37;95399.75;;;13.72;76.57
7774;BME280;3931;42.260;23.116;2023-03-03T02:44:06;95402.06;;;13.73;75.89
7774;BME280;3931;42.260;23.116;2023-03-03T02:46:35;95409.16;;;13.65;76.40
7774;BME280;3931;42.260;23.116;2023-03-03T02:49:03;95409.41;;;13.49;77.71
7774;BME280;3931;42.260;23.116;2023-03-03T02:51:31;95411.41;;;13.49;78.94
7774;BME280;3931;42.260;23.116;2023-03-03T02:53:57;95417.19;;;13.33;78.10
7774;BME280;3931;42.260;23.116;2023-03-03T02:56:23;95411.25;;;13.43;75.96
7774;BME280;3931;42.260;23.116;2023-03-03T02:58:49;95410.47;;;13.12;78.60
7774;BME280;3931;42.260;23.116;2023-03-03T03:01:16;95414.84;;;13.00;78.05
7774;BME280;3931;42.260;23.116;2023-03-03T03:03:42;95408.56;;;12.78;81.02
7774;BME280;3931;42.260;23.116;2023-03-03T03:06:08;95410.47;;;12.90;81.19
7774;BME280;3931;42.260;23.116;2023-03-03T03:08:34;95417.63;;;13.22;78.45
7774;BME280;3931;42.260;23.116;2023-03-03T03:11:00;95414.94;;;13.09;80.74
7774;BME280;3931;42.260;23.116;2023-03-03T03:13:27;95414.16;;;12.44;83.76
7774;BME280;3931;42.260;23.116;2023-03-03T03:15:53;95410.34;;;12.29;85.89
7774;BME280;3931;42.260;23.116;2023-03-03T03:18:19;95405.84;;;12.10;87.53
7774;BME280;3931;42.260;23.116;2023-03-03T03:20:45;95405.66;;;12.60;83.71
7774;BME280;3931;42.260;23.116;2023-03-03T03:23:12;95406.94;;;12.68;84.63
7774;BME280;3931;42.260;23.116;2023-03-03T03:25:38;95403.13;;;12.53;84.87
7774;BME280;3931;42.260;23.116;2023-03-03T03:28:10;95405.38;;;12.45;85.21
7774;BME280;3931;42.260;23.116;2023-03-03T03:30:36;95401.56;;;12.74;85.89
7774;BME280;3931;42.260;23.116;2023-03-03T03:33:02;95401.22;;;12.93;83.79
7774;BME280;3931;42.260;23.116;2023-03-03T03:35:28;95397.03;;;13.10;82.87
7774;BME280;3931;42.260;23.116;2023-03-03T03:37:54;95400.44;;;12.28;88.83
7774;BME280;3931;42.260;23.116;2023-03-03T03:40:21;95402.06;;;13.03;84.72
7774;BME280;3931;42.260;23.116;2023-03-03T03:42:47;95400.38;;;13.27;82.87
7774;BME280;3931;42.260;23.116;2023-03-03T03:45:13;95404.06;;;13.02;84.15
7774;BME280;3931;42.260;23.116;2023-03-03T03:47:39;95398.59;;;13.11;84.30
7774;BME280;3931;42.260;23.116;2023-03-03T03:50:06;95396.09;;;13.44;81.76
7774;BME280;3931;42.260;23.116;2023-03-03T03:52:33;95395.94;;;13.39;81.71
7774;BME280;3931;42.260;23.116;2023-03-03T03:54:59;95396.41;;;13.06;83.48
7774;BME280;3931;42.260;23.116;2023-03-03T03:57:25;95396.28;;;13.19;84.69
7774;BME280;3931;42.260;23.116;2023-03-03T03:59:51;95393.34;;;13.13;84.59
7774;BME280;3931;42.260;23.116;2023-03-03T04:02:17;95389.31;;;13.05;86.38
7774;BME280;3931;42.260;23.116;2023-03-03T04:04:43;95386.84;;;12.86;87.37
7774;BME280;3931;42.260;23.116;2023-03-03T04:07:09;95382.69;;;12.90;88.08
7774;BME280;3931;42.260;23.116;2023-03-03T04:09:36;95380.22;;;12.92;88.69
7774;BME280;3931;42.260;23.116;2023-03-03T04:12:03;95389.44;;;12.80;90.24
7774;BME280;3931;42.260;23.116;2023-03-03T04:14:29;95387.81;;;12.92;90.19
7774;BME280;3931;42.260;23.116;2023-03-03T04:16:55;95391.63;;;12.64;89.69
7774;BME280;3931;42.260;23.116;2023-03-03T04:19:21;95389.03;;;12.48;93.72
7774;BME280;3931;42.260;23.116;2023-03-03T04:21:47;95386.69;;;12.59;94.30
7774;BME280;3931;42.260;23.116;2023-03-03T04:24:13;95384.81;;;13.08;90.78
7774;BME280;3931;42.260;23.116;2023-03-03T04:26:40;95395.81;;;13.51;85.64
7774;BME280;3931;42.260;23.116;2023-03-03T04:29:06;95393.63;;;13.46;85.53
7774;BME280;3931;42.260;23.116;2023-03-03T04:31:32;95389.00;;;13.12;87.73
7774;BME280;3931;42.260;23.116;2023-03-03T04:33:58;95395.75;;;13.33;87.58
7774;BME280;3931;42.260;23.116;2023-03-03T04:36:24;95393.47;;;13.41;86.56
7774;BME280;3931;42.260;23.116;2023-03-03T04:38:50;95390.41;;;13.17;86.28
7774;BME280;3931;42.260;23.116;2023-03-03T04:41:16;95401.78;;;13.32;86.18
7774;BME280;3931;42.260;23.116;2023-03-03T04:43:43;95401.34;;;13.42;85.39
7774;BME280;3931;42.260;23.116;2023-03-03T04:46:09;95393.97;;;13.57;84.39
7774;BME280;3931;42.260;23.116;2023-03-03T04:48:35;95397.84;;;13.20;86.31
7774;BME280;3931;42.260;23.116;2023-03-03T04:51:03;95391.75;;;13.34;87.96
7774;BME280;3931;42.260;23.116;2023-03-03T04:53:29;95395.75;;;13.33;86.66
7774;BME280;3931;42.260;23.116;2023-03-03T04:55:55;95394.75;;;13.58;85.79
7774;BME280;3931;42.260;23.116;2023-03-03T04:58:21;95402.94;;;13.52;84.88
7774;BME280;3931;42.260;23.116;2023-03-03T05:00:52;95406.91;;;13.42;86.63
7774;BME280;3931;42.260;23.116;2023-03-03T05:03:19;95401.59;;;13.04;86.62
7774;BME280;3931;42.260;23.116;2023-03-03T05:05:46;95404.69;;;12.76;91.09
7774;BME280;3931;42.260;23.116;2023-03-03T05:08:12;95404.00;;;13.15;91.49
7774;BME280;3931;42.260;23.116;2023-03-03T05:10:39;95405.75;;;13.00;93.83
7774;BME280;3931;42.260;23.116;2023-03-03T05:13:05;95403.19;;;13.05;96.21
7774;BME280;3931;42.260;23.116;2023-03-03T05:15:32;95404.13;;;13.42;91.67
7774;BME280;3931;42.260;23.116;2023-03-03T05:17:59;95411.53;;;13.36;91.79
7774;BME280;3931;42.260;23.116;2023-03-03T05:20:25;95407.84;;;13.48;86.62
7774;BME280;3931;42.260;23.116;2023-03-03T05:22:51;95405.88;;;13.58;86.86
7774;BME280;3931;42.260;23.116;2023-03-03T05:25:17;95417.56;;;13.44;87.39
7774;BME280;3931;42.260;23.116;2023-03-03T05:27:43;95414.94;;;13.40;90.10
7774;BME280;3931;42.260;23.116;2023-03-03T05:30:11;95422.22;;;13.47;86.79
7774;BME280;3931;42.260;23.116;2023-03-03T05:32:37;95423.13;;;13.44;87.09
7774;BME280;3931;42.260;23.116;2023-03-03T05:35:05;95404.44;;;13.44;88.77
7774;BME280;3931;42.260;23.116;2023-03-03T05:37:31;95412.72;;;13.35;89.88
7774;BME280;3931;42.260;23.116;2023-03-03T05:39:57;95416.22;;;13.18;88.92
7774;BME280;3931;42.260;23.116;2023-03-03T05:42:23;95416.22;;;13.18;88.12
7774;BME280;3931;42.260;23.116;2023-03-03T05:44:49;95419.03;;;13.66;83.29
7774;BME280;3931;42.260;23.116;2023-03-03T05:47:15;95425.56;;;13.72;82.18
7774;BME280;3931;42.260;23.116;2023-03-03T05:49:41;95420.13;;;13.29;85.59
7774;BME280;3931;42.260;23.116;2023-03-03T05:52:08;95427.00;;;13.46;83.90
7774;BME280;3931;42.260;23.116;2023-03-03T05:54:35;95424.56;;;13.57;83.24
7774;BME280;3931;42.260;23.116;2023-03-03T05:57:01;95432.47;;;13.59;83.87
7774;BME280;3931;42.260;23.116;2023-03-03T05:59:27;95429.06;;;13.64;83.89
7774;BME280;3931;42.260;23.116;2023-03-03T06:01:53;95431.13;;;13.42;83.90
7774;BME280;3931;42.260;23.116;2023-03-03T06:04:19;95431.38;;;13.56;82.36
7774;BME280;3931;42.260;23.116;2023-03-03T06:06:45;95437.44;;;13.73;82.37
7774;BME280;3931;42.260;23.116;2023-03-03T06:09:12;95430.06;;;13.48;83.93
7774;BME280;3931;42.260;23.116;2023-03-03T06:11:38;95430.75;;;13.52;85.26
7774;BME280;3931;42.260;23.116;2023-03-03T06:14:04;95439.34;;;13.85;79.30
7774;BME280;3931;42.260;23.116;2023-03-03T06:16:30;95441.16;;;13.39;84.25
7774;BME280;3931;42.260;23.116;2023-03-03T06:18:56;95439.63;;;13.38;86.06
7774;BME280;3931;42.260;23.116;2023-03-03T06:21:22;95445.50;;;13.40;83.16
7774;BME280;3931;42.260;23.116;2023-03-03T06:23:48;95446.50;;;13.25;85.10
7774;BME280;3931;42.260;23.116;2023-03-03T06:26:14;95447.06;;;13.20;88.92
7774;BME280;3931;42.260;23.116;2023-03-03T06:28:40;95444.44;;;12.73;91.66
7774;BME280;3931;42.260;23.116;2023-03-03T06:31:06;95439.84;;;12.57;94.92
7774;BME280;3931;42.260;23.116;2023-03-03T06:33:33;95446.03;;;13.57;86.98
7774;BME280;3931;42.260;23.116;2023-03-03T06:35:59;95445.91;;;13.30;88.96
7774;BME280;3931;42.260;23.116;2023-03-03T06:38:25;95451.06;;;13.40;84.71
7774;BME280;3931;42.260;23.116;2023-03-03T06:40:51;95448.22;;;13.31;87.00
7774;BME280;3931;42.260;23.116;2023-03-03T06:43:17;95454.69;;;13.59;84.85
7774;BME280;3931;42.260;23.116;2023-03-03T06:45:44;95452.09;;;13.34;85.40
7774;BME280;3931;42.260;23.116;2023-03-03T06:48:10;95444.41;;;13.38;88.71
7774;BME280;3931;42.260;23.116;2023-03-03T06:50:36;95447.22;;;13.47;88.61
7774;BME280;3931;42.260;23.116;2023-03-03T06:53:10;95446.16;;;14.02;85.34
7774;BME280;3931;42.260;23.116;2023-03-03T06:55:36;95454.34;;;13.87;83.70
7774;BME280;3931;42.260;23.116;2023-03-03T06:58:07;95446.78;;;12.74;91.15
7774;BME280;3931;42.260;23.116;2023-03-03T07:00:34;95449.66;;;12.92;91.29
7774;BME280;3931;42.260;23.116;2023-03-03T07:03:06;95454.97;;;13.21;86.58
7774;BME280;3931;42.260;23.116;2023-03-03T07:05:33;95461.09;;;12.94;89.59
7774;BME280;3931;42.260;23.116;2023-03-03T07:07:59;95458.91;;;13.42;86.51
7774;BME280;3931;42.260;23.116;2023-03-03T07:10:26;95462.03;;;13.74;82.06
7774;BME280;3931;42.260;23.116;2023-03-03T07:12:53;95465.78;;;13.50;80.75
7774;BME280;3931;42.260;23.116;2023-03-03T07:15:33;95461.44;;;13.49;81.63
7774;BME280;3931;42.260;23.116;2023-03-03T07:18:00;95459.38;;;13.09;86.15
7774;BME280;3931;42.260;23.116;2023-03-03T07:20:31;95452.47;;;13.14;90.08
7774;BME280;3931;42.260;23.116;2023-03-03T07:22:57;95454.63;;;12.97;90.50
7774;BME280;3931;42.260;23.116;2023-03-03T07:25:29;95457.94;;;13.27;88.19
7774;BME280;3931;42.260;23.116;2023-03-03T07:27:59;95459.28;;;13.53;84.97
7774;BME280;3931;42.260;23.116;2023-03-03T07:30:27;95461.66;;;14.03;81.35
7774;BME280;3931;42.260;23.116;2023-03-03T07:32:54;95467.13;;;13.76;83.93
7774;BME280;3931;42.260;23.116;2023-03-03T07:35:35;95462.72;;;13.66;82.92
7774;BME280;3931;42.260;23.116;2023-03-03T07:38:15;95460.25;;;13.59;85.40
7774;BME280;3931;42.260;23.116;2023-03-03T07:40:47;95456.91;;;13.73;81.95
7774;BME280;3931;42.260;23.116;2023-03-03T07:43:34;95451.75;;;14.02;79.93
7774;BME280;3931;42.260;23.116;2023-03-03T07:46:13;95459.25;;;13.74;83.11
7774;BME280;3931;42.260;23.116;2023-03-03T07:48:42;95452.69;;;14.08;80.08
7774;BME280;3931;42.260;23.116;2023-03-03T07:51:15;95445.13;;;12.86;90.34
7774;BME280;3931;42.260;23.116;2023-03-03T07:53:43;95449.81;;;13.72;85.14
7774;BME280;3931;42.260;23.116;2023-03-03T07:56:25;95458.03;;;13.84;82.29
7774;BME280;3931;42.260;23.116;2023-03-03T07:58:53;95458.09;;;14.03;80.20
7774;BME280;3931;42.260;23.116;2023-03-03T08:01:34;95451.78;;;14.20;78.49
7774;BME280;3931;42.260;23.116;2023-03-03T08:04:10;95447.31;;;14.23;80.87
7774;BME280;3931;42.260;23.116;2023-03-03T08:06:43;95455.66;;;13.12;86.28
7774;BME280;3931;42.260;23.116;2023-03-03T08:09:34;95445.63;;;13.67;88.45
7774;BME280;3931;42.260;23.116;2023-03-03T08:14:50;95442.44;;;13.87;80.87
7774;BME280;3931;42.260;23.116;2023-03-03T08:17:20;95441.16;;;13.39;87.82
7774;BME280;3931;42.260;23.116;2023-03-03T08:19:47;95439.91;;;13.71;86.58
7774;BME280;3931;42.260;23.116;2023-03-03T08:22:16;95428.53;;;13.87;84.68
7774;BME280;3931;42.260;23.116;2023-03-03T08:24:43;95427.81;;;14.23;80.33
7774;BME280;3931;42.260;23.116;2023-03-03T08:27:09;95434.69;;;14.58;78.34
7774;BME280;3931;42.260;23.116;2023-03-03T08:29:35;95438.16;;;14.13;79.54
7774;BME280;3931;42.260;23.116;2023-03-03T08:32:01;95438.88;;;13.86;83.06
7774;BME280;3931;42.260;23.116;2023-03-03T08:34:27;95443.97;;;14.46;78.87
7774;BME280;3931;42.260;23.116;2023-03-03T08:36:53;95432.50;;;14.53;77.20
7774;BME280;3931;42.260;23.116;2023-03-03T08:39:23;95434.28;;;14.11;82.31
7774;BME280;3931;42.260;23.116;2023-03-03T08:41:49;95430.06;;;14.46;80.95
7774;BME280;3931;42.260;23.116;2023-03-03T08:44:15;95440.31;;;14.00;81.43
7774;BME280;3931;42.260;23.116;2023-03-03T08:46:41;95431.28;;;14.81;77.23
7774;BME280;3931;42.260;23.116;2023-03-03T08:49:08;95433.22;;;14.17;82.49
7774;BME280;3931;42.260;23.116;2023-03-03T08:51:35;95431.81;;;13.55;81.58
7774;BME280;3931;42.260;23.116;2023-03-03T08:54:01;95435.84;;;14.12;81.41
7774;BME280;3931;42.260;23.116;2023-03-03T08:56:27;95434.22;;;14.41;80.27
7774;BME280;3931;42.260;23.116;2023-03-03T08:58:53;95430.81;;;14.83;76.08
7774;BME280;3931;42.260;23.116;2023-03-03T09:01:19;95438.41;;;14.37;78.26
7774;BME280;3931;42.260;23.116;2023-03-03T09:03:46;95441.63;;;13.77;81.41
7774;BME280;3931;42.260;23.116;2023-03-03T09:06:12;95437.31;;;14.43;78.45
7774;BME280;3931;42.260;23.116;2023-03-03T09:08:38;95442.25;;;14.76;73.63
7774;BME280;3931;42.260;23.116;2023-03-03T09:11:09;95430.97;;;14.70;73.59
7774;BME280;3931;42.260;23.116;2023-03-03T09:13:37;95429.41;;;14.60;77.53
7774;BME280;3931;42.260;23.116;2023-03-03T09:16:11;95440.56;;;14.69;76.02
7774;BME280;3931;42.260;23.116;2023-03-03T09:18:38;95438.72;;;14.66;76.23
7774;BME280;3931;42.260;23.116;2023-03-03T09:21:20;95440.25;;;14.49;75.80
7774;BME280;3931;42.260;23.116;2023-03-03T09:23:51;95443.03;;;14.40;76.09
7774;BME280;3931;42.260;23.116;2023-03-03T09:26:27;95436.38;;;14.37;78.84
7774;BME280;3931;42.260;23.116;2023-03-03T09:28:58;95444.34;;;14.08;82.34
7774;BME280;3931;42.260;23.116;2023-03-03T09:31:30;95436.38;;;14.55;80.24
7774;BME280;3931;42.260;23.116;2023-03-03T09:34:02;95449.81;;;13.72;81.84
7774;BME280;3931;42.260;23.116;2023-03-03T09:36:37;95437.69;;;14.06;80.32
7774;BME280;3931;42.260;23.116;2023-03-03T09:39:13;95446.09;;;13.75;83.16
7774;BME280;3931;42.260;23.116;2023-03-03T09:42:13;95442.84;;;14.25;81.98
7774;BME280;3931;42.260;23.116;2023-03-03T09:47:53;95444.06;;;14.24;82.36
7774;BME280;3931;42.260;23.116;2023-03-03T09:50:29;95452.66;;;13.90;85.56
7774;BME280;3931;42.260;23.116;2023-03-03T09:53:09;95440.81;;;14.17;82.87
7774;BME280;3931;42.260;23.116;2023-03-03T09:55:47;95437.44;;;14.31;79.85
7774;BME280;3931;42.260;23.116;2023-03-03T09:58:30;95436.38;;;14.46;81.23
7774;BME280;3931;42.260;23.116;2023-03-03T10:01:09;95444.53;;;14.23;81.45
7774;BME280;3931;42.260;23.116;2023-03-03T10:03:56;95445.25;;;14.05;83.12
7774;BME280;3931;42.260;23.116;2023-03-03T10:06:28;95435.44;;;14.40;82.36
7774;BME280;3931;42.260;23.116;2023-03-03T10:09:13;95444.13;;;14.88;81.20
7774;BME280;3931;42.260;23.116;2023-03-03T10:11:48;95438.81;;;15.17;78.06
7774;BME280;3931;42.260;23.116;2023-03-03T10:14:25;95445.91;;;15.18;78.49
7774;BME280;3931;42.260;23.116;2023-03-03T10:17:05;95447.00;;;15.20;76.72
7774;BME280;3931;42.260;23.116;2023-03-03T10:19:38;95448.28;;;14.83;79.51
7774;BME280;3931;42.260;23.116;2023-03-03T10:22:16;95440.25;;;14.76;79.83
7774;BME280;3931;42.260;23.116;2023-03-03T10:24:53;95444.72;;;15.01;78.26
7774;BME280;3931;42.260;23.116;2023-03-03T10:27:35;95432.47;;;15.16;77.57
7774;BME280;3931;42.260;23.116;2023-03-03T10:30:07;95441.28;;;15.24;76.57
7774;BME280;3931;42.260;23.116;2023-03-03T10:32:43;95442.56;;;14.69;79.86
7774;BME280;3931;42.260;23.116;2023-03-03T10:35:34;95439.31;;;15.06;78.19
7774;BME280;3931;42.260;23.116;2023-03-03T10:40:57;95436.06;;;14.72;83.08
7774;BME280;3931;42.260;23.116;2023-03-03T10:43:44;95426.81;;;14.66;85.31
7774;BME280;3931;42.260;23.116;2023-03-03T10:46:40;95419.22;;;14.39;84.83
7774;BME280;3931;42.260;23.116;2023-03-03T10:49:21;95423.41;;;14.52;82.51
7774;BME280;3931;42.260;23.116;2023-03-03T10:52:03;95415.63;;;14.93;79.73
7774;BME280;3931;42.260;23.116;2023-03-03T10:54:46;95413.72;;;15.17;80.58
7774;BME280;3931;42.260;23.116;2023-03-03T10:57:21;95410.44;;;15.27;80.82
7774;BME280;3931;42.260;23.116;2023-03-03T11:00:02;95411.69;;;15.26;81.81
7774;BME280;3931;42.260;23.116;2023-03-03T11:02:39;95403.44;;;15.50;78.00
7774;BME280;3931;42.260;23.116;2023-03-03T11:05:23;95405.75;;;15.43;81.65
7774;BME280;3931;42.260;23.116;2023-03-03T11:07:56;95402.41;;;15.20;80.12
7774;BME280;3931;42.260;23.116;2023-03-03T11:10:35;95397.16;;;15.13;80.15
7774;BME280;3931;42.260;23.116;2023-03-03T11:13:09;95397.47;;;15.15;79.49
7774;BME280;3931;42.260;23.116;2023-03-03T11:15:49;95390.13;;;15.36;82.32
7774;BME280;3931;42.260;23.116;2023-03-03T11:18:34;95387.66;;;14.69;87.42
7774;BME280;3931;42.260;23.116;2023-03-03T11:21:12;95387.94;;;14.89;86.83
7774;BME280;3931;42.260;23.116;2023-03-03T11:23:55;95386.53;;;14.85;86.66
7774;BME280;3931;42.260;23.116;2023-03-03T11:26:37;95382.06;;;14.87;81.81
7774;BME280;3931;42.260;23.116;2023-03-03T11:29:18;95389.56;;;15.23;78.99
7774;BME280;3931;42.260;23.116;2023-03-03T11:31:53;95378.44;;;15.05;79.33
7774;BME280;3931;42.260;23.116;2023-03-03T11:34:36;95382.69;;;15.42;77.11
7774;BME280;3931;42.260;23.116;2023-03-03T11:37:10;95380.13;;;15.11;84.12
7774;BME280;3931;42.260;23.116;2023-03-03T11:39:41;95384.28;;;15.25;82.39
7774;BME280;3931;42.260;23.116;2023-03-03T11:42:14;95387.47;;;15.51;77.85
7774;BME280;3931;42.260;23.116;2023-03-03T11:44:49;95383.44;;;15.52;77.96
7774;BME280;3931;42.260;23.116;2023-03-03T11:47:20;95377.59;;;15.31;76.92
7774;BME280;3931;42.260;23.116;2023-03-03T11:49:49;95378.09;;;15.63;74.93
7774;BME280;3931;42.260;23.116;2023-03-03T11:52:30;95374.91;;;15.55;76.51
7774;BME280;3931;42.260;23.116;2023-03-03T11:55:02;95366.50;;;15.13;81.40
7774;BME280;3931;42.260;23.116;2023-03-03T11:57:32;95376.69;;;14.66;83.35
7774;BME280;3931;42.260;23.116;2023-03-03T12:00:11;95368.34;;;14.56;86.56
7774;BME280;3931;42.260;23.116;2023-03-03T12:02:59;95371.13;;;14.66;84.90
7774;BME280;3931;42.260;23.116;2023-03-03T12:05:40;95371.59;;;15.24;79.52
7774;BME280;3931;42.260;23.116;2023-03-03T12:08:21;95362.25;;;15.36;79.48
7774;BME280;3931;42.260;23.116;2023-03-03T12:10:54;95367.88;;;15.18;80.13
7774;BME280;3931;42.260;23.116;2023-03-03T12:13:29;95364.00;;;15.24;80.37
7774;BME280;3931;42.260;23.116;2023-03-03T12:16:08;95362.97;;;15.13;79.72
7774;BME280;3931;42.260;23.116;2023-03-03T12:18:53;95358.75;;;15.26;79.31
7774;BME280;3931;42.260;23.116;2023-03-03T12:21:38;95355.88;;;15.35;80.87
7774;BME280;3931;42.260;23.116;2023-03-03T12:24:31;95349.97;;;15.43;78.48
7774;BME280;3931;42.260;23.116;2023-03-03T12:27:13;95344.78;;;14.67;85.53
7774;BME280;3931;42.260;23.116;2023-03-03T12:29:48;95347.25;;;14.74;85.28
7774;BME280;3931;42.260;23.116;2023-03-03T12:32:25;95347.38;;;14.97;85.85
7774;BME280;3931;42.260;23.116;2023-03-03T12:34:56;95345.59;;;15.18;88.04
7774;BME280;3931;42.260;23.116;2023-03-03T12:37:38;95348.56;;;15.14;81.82
7774;BME280;3931;42.260;23.116;2023-03-03T12:40:14;95349.00;;;15.87;77.64
7774;BME280;3931;42.260;23.116;2023-03-03T12:42:51;95351.66;;;16.29;76.43
7774;BME280;3931;42.260;23.116;2023-03-03T12:45:32;95350.13;;;16.04;74.96
7774;BME280;3931;42.260;23.116;2023-03-03T12:48:07;95341.28;;;16.06;75.66
7774;BME280;3931;42.260;23.116;2023-03-03T12:50:40;95335.00;;;16.35;76.45
7774;BME280;3931;42.260;23.116;2023-03-03T12:53:23;95341.28;;;15.82;75.10
7774;BME280;3931;42.260;23.116;2023-03-03T12:55:56;95334.66;;;15.80;77.20
7774;BME280;3931;42.260;23.116;2023-03-03T12:58:36;95329.16;;;15.62;78.46
7774;BME280;3931;42.260;23.116;2023-03-03T13:01:14;95338.56;;;15.31;77.99
7774;BME280;3931;42.260;23.116;2023-03-03T13:03:51;95333.50;;;15.63;79.63
7774;BME280;3931;42.260;23.116;2023-03-03T13:06:26;95332.19;;;15.96;78.25
7774;BME280;3931;42.260;23.116;2023-03-03T13:09:05;95332.50;;;15.98;74.61
7774;BME280;3931;42.260;23.116;2023-03-03T13:11:44;95337.47;;;15.94;78.09
7774;BME280;3931;42.260;23.116;2023-03-03T13:14:23;95336.38;;;15.45;80.51
7774;BME280;3931;42.260;23.116;2023-03-03T13:17:02;95341.47;;;15.79;78.38
7774;BME280;3931;42.260;23.116;2023-03-03T13:19:31;95333.84;;;16.27;73.29
7774;BME280;3931;42.260;23.116;2023-03-03T13:22:05;95333.31;;;16.14;73.05
7774;BME280;3931;42.260;23.116;2023-03-03T13:24:38;95333.06;;;16.02;74.13
7774;BME280;3931;42.260;23.116;2023-03-03T13:27:11;95330.66;;;15.72;74.79
7774;BME280;3931;42.260;23.116;2023-03-03T13:29:41;95326.34;;;15.29;81.73
7774;BME280;3931;42.260;23.116;2023-03-03T13:32:11;95331.25;;;15.76;80.29
7774;BME280;3931;42.260;23.116;2023-03-03T13:34:46;95333.31;;;16.14;75.32
7774;BME280;3931;42.260;23.116;2023-03-03T13:37:20;95329.69;;;15.98;76.76